Time;durP1;ratioP1;P1;durP2;ratioP2;P2;SDS_P1;SDS_P2;PMS_P1;PMS_P2;Temp;Humidity;BMP_temperature;BMP_pressure;BME280_temperature;BME280_humidity;BME280_pressure;Samples;Min_cycle;Max_cycle;Signal;HPM_P1;HPM_P2
2021/06/23 00:02:19;;;;;;;7.90;6.63;;;19.40;99.90;;;;;;5009242;28;20783;-66
2021/06/23 00:04:46;;;;;;;7.13;6.63;;;19.30;99.90;;;;;;5008868;28;20049;-68
2021/06/23 00:07:13;;;;;;;6.45;5.90;;;19.30;99.90;;;;;;5009777;28;20207;-68
2021/06/23 00:09:40;;;;;;;8.90;8.13;;;19.30;99.90;;;;;;5010810;28;20437;-67
2021/06/23 00:12:14;;;;;;;8.95;6.53;;;19.30;99.90;;;;;;5008408;28;20048;-67
2021/06/23 00:14:42;;;;;;;7.60;6.90;;;19.30;99.90;;;;;;5023358;28;20139;-68
2021/06/23 00:17:09;;;;;;;8.18;7.43;;;19.20;99.90;;;;;;5011664;28;20824;-66
2021/06/23 00:19:36;;;;;;;8.65;7.72;;;19.20;99.90;;;;;;5009321;28;20057;-68
2021/06/23 00:22:03;;;;;;;7.30;6.60;;;19.20;99.90;;;;;;5009544;28;20450;-67
2021/06/23 00:24:30;;;;;;;13.00;9.07;;;19.10;99.90;;;;;;5010259;28;20141;-69
2021/06/23 00:26:57;;;;;;;10.35;9.32;;;19.10;99.90;;;;;;5011134;28;20162;-68
2021/06/23 00:29:23;;;;;;;8.35;7.63;;;19.00;99.90;;;;;;5009807;28;20081;-68
2021/06/23 00:31:50;;;;;;;8.38;7.68;;;19.00;99.90;;;;;;5009333;28;20216;-66
2021/06/23 00:34:22;;;;;;;10.50;7.57;;;19.00;99.90;;;;;;5010145;28;20069;-67
2021/06/23 00:36:49;;;;;;;8.85;8.02;;;19.00;99.90;;;;;;5024135;28;20446;-68
2021/06/23 00:39:17;;;;;;;8.73;7.15;;;18.90;99.90;;;;;;5008970;28;20136;-67
2021/06/23 00:41:44;;;;;;;9.23;8.23;;;18.90;99.90;;;;;;5008181;28;20144;-66
2021/06/23 00:44:14;;;;;;;9.38;8.40;;;18.80;99.90;;;;;;5007772;28;20056;-66
2021/06/23 00:46:41;;;;;;;8.80;8.00;;;18.80;99.90;;;;;;5008331;28;20045;-66
2021/06/23 00:49:10;;;;;;;9.27;8.38;;;18.80;99.90;;;;;;5021569;28;20392;-65
2021/06/23 00:51:50;;;;;;;10.73;9.73;;;18.80;99.90;;;;;;5003366;28;20059;-67
2021/06/23 00:54:29;;;;;;;12.07;10.05;;;18.80;99.90;;;;;;5023174;28;20041;-67
2021/06/23 00:56:57;;;;;;;10.88;9.85;;;18.80;99.90;;;;;;5021138;28;20146;-68
2021/06/23 00:59:26;;;;;;;11.23;9.25;;;18.80;99.90;;;;;;5009399;28;20068;-67
2021/06/23 01:01:54;;;;;;;13.02;10.65;;;18.70;99.90;;;;;;5005570;28;20119;-68
2021/06/23 01:04:23;;;;;;;11.23;9.43;;;18.70;99.90;;;;;;5022153;28;20502;-67
2021/06/23 01:06:51;;;;;;;11.73;10.52;;;18.70;99.90;;;;;;5023477;28;20636;-67
2021/06/23 01:09:19;;;;;;;14.07;11.35;;;18.70;99.90;;;;;;5006251;28;20049;-68
2021/06/23 01:12:06;;;;;;;13.07;11.65;;;18.60;99.90;;;;;;5022103;28;20061;-66
2021/06/23 01:14:35;;;;;;;13.75;12.35;;;18.60;99.90;;;;;;5022558;28;20076;-66
2021/06/23 01:17:04;;;;;;;14.05;12.65;;;18.60;99.90;;;;;;5005366;28;20471;-67
2021/06/23 01:19:33;;;;;;;13.18;11.80;;;18.70;99.90;;;;;;5009298;28;20064;-68
2021/06/23 01:22:00;;;;;;;15.15;13.55;;;18.60;99.90;;;;;;5008284;28;20069;-66
2021/06/23 01:24:28;;;;;;;16.00;14.30;;;18.60;99.90;;;;;;5023837;28;20089;-67
2021/06/23 01:26:56;;;;;;;13.73;12.43;;;18.50;99.90;;;;;;5010132;28;20069;-67
2021/06/23 01:29:23;;;;;;;17.85;15.23;;;18.50;99.90;;;;;;5008736;28;20056;-68
2021/06/23 01:31:57;;;;;;;16.33;14.63;;;18.50;99.90;;;;;;5006505;28;20448;-65
2021/06/23 01:34:25;;;;;;;17.00;15.27;;;18.50;99.90;;;;;;5008033;28;20088;-67
2021/06/23 01:36:52;;;;;;;14.60;13.02;;;18.50;99.90;;;;;;5008915;28;20146;-66
2021/06/23 01:39:19;;;;;;;18.63;15.57;;;18.50;99.90;;;;;;5023867;28;20084;-68
2021/06/23 01:41:47;;;;;;;15.95;14.35;;;18.50;99.90;;;;;;5007606;28;20127;-67
2021/06/23 01:44:17;;;;;;;18.10;14.40;;;18.50;99.90;;;;;;5007818;28;20045;-66
2021/06/23 01:46:44;;;;;;;16.55;12.95;;;18.50;99.90;;;;;;5022491;28;20792;-66
2021/06/23 01:49:19;;;;;;;16.50;14.80;;;18.40;99.90;;;;;;5021965;28;20056;-65
2021/06/23 01:51:46;;;;;;;19.35;17.35;;;18.40;99.90;;;;;;5003471;28;20056;-68
2021/06/23 01:54:14;;;;;;;18.77;15.20;;;18.50;99.90;;;;;;5003958;28;20499;-68
2021/06/23 01:56:43;;;;;;;23.27;19.52;;;18.50;99.90;;;;;;5024587;28;20047;-65
2021/06/23 01:59:11;;;;;;;20.45;17.52;;;18.50;99.90;;;;;;4992614;28;20057;-67
2021/06/23 02:02:23;;;;;;;23.10;19.23;;;18.50;99.90;;;;;;5001558;28;20049;-67
2021/06/23 02:05:17;;;;;;;20.80;18.33;;;18.50;99.90;;;;;;5023339;28;20061;-65
2021/06/23 02:07:58;;;;;;;26.67;20.80;;;18.50;99.90;;;;;;5003198;28;20049;-68
2021/06/23 02:11:03;;;;;;;21.67;19.35;;;18.50;99.90;;;;;;5007401;28;20057;-68
2021/06/23 02:13:29;;;;;;;21.50;18.17;;;18.50;99.90;;;;;;5006732;28;20172;-68
2021/06/23 02:16:17;;;;;;;23.42;21.00;;;18.50;99.90;;;;;;5004493;28;21646;-65
2021/06/23 02:18:45;;;;;;;23.52;21.02;;;18.50;99.90;;;;;;5006714;28;20095;-65
2021/06/23 02:21:19;;;;;;;21.08;18.88;;;18.50;99.90;;;;;;5018752;28;20053;-66
2021/06/23 02:23:51;;;;;;;18.88;16.95;;;18.40;99.90;;;;;;5006441;28;20049;-68
2021/06/23 02:26:18;;;;;;;18.23;16.08;;;18.40;99.90;;;;;;5006593;28;20057;-68
2021/06/23 02:28:46;;;;;;;20.42;17.02;;;18.40;99.90;;;;;;5008500;28;20511;-68
2021/06/23 02:31:17;;;;;;;20.75;18.45;;;18.30;99.90;;;;;;5005828;28;20053;-68
2021/06/23 02:33:50;;;;;;;17.27;15.43;;;18.30;99.90;;;;;;5007838;28;20216;-66
2021/06/23 02:36:22;;;;;;;18.45;16.52;;;18.30;99.90;;;;;;5022703;28;20578;-69
2021/06/23 02:38:50;;;;;;;20.20;18.02;;;18.30;99.90;;;;;;5009010;28;20041;-69
2021/06/23 02:41:18;;;;;;;20.08;17.98;;;18.30;99.90;;;;;;5024601;28;20057;-68
2021/06/23 02:43:48;;;;;;;31.85;18.33;;;18.30;99.90;;;;;;5005849;28;20049;-67
2021/06/23 02:46:23;;;;;;;20.65;18.17;;;18.30;99.90;;;;;;5025100;28;20427;-68
2021/06/23 02:48:56;;;;;;;17.90;16.00;;;18.30;99.90;;;;;;5007787;28;20048;-66
2021/06/23 02:51:39;;;;;;;20.75;16.65;;;18.30;99.90;;;;;;5023549;28;20041;-68
2021/06/23 02:54:08;;;;;;;19.30;17.13;;;18.30;99.90;;;;;;5006964;28;20157;-65
2021/06/23 02:57:02;;;;;;;19.25;17.25;;;18.30;99.90;;;;;;5008546;28;20808;-68
2021/06/23 02:59:30;;;;;;;21.90;18.92;;;18.30;99.90;;;;;;5009789;28;20388;-66
2021/06/23 03:01:57;;;;;;;19.17;16.67;;;18.30;99.90;;;;;;5007330;28;20045;-66
2021/06/23 03:04:25;;;;;;;17.75;16.02;;;18.30;99.90;;;;;;5008840;28;20049;-65
2021/06/23 03:07:09;;;;;;;17.75;15.68;;;18.30;99.90;;;;;;5007967;28;20046;-67
2021/06/23 03:09:41;;;;;;;21.70;19.33;;;18.30;99.90;;;;;;5023600;28;20163;-66
2021/06/23 03:12:28;;;;;;;18.80;16.98;;;18.30;99.90;;;;;;5010815;28;20050;-67
2021/06/23 03:15:15;;;;;;;24.40;20.77;;;18.30;99.90;;;;;;5008828;28;20038;-67
2021/06/23 03:17:43;;;;;;;18.92;17.08;;;18.20;99.90;;;;;;5007112;28;20056;-66
2021/06/23 03:20:11;;;;;;;22.60;19.10;;;18.20;99.90;;;;;;5006404;28;20041;-65
2021/06/23 03:22:43;;;;;;;29.58;21.75;;;18.20;99.90;;;;;;5007809;28;20368;-65
2021/06/23 03:25:11;;;;;;;23.60;19.67;;;18.20;99.90;;;;;;5009935;28;20069;-67
2021/06/23 03:27:38;;;;;;;20.58;18.33;;;18.20;99.90;;;;;;5010930;28;20368;-67
2021/06/23 03:30:08;;;;;;;34.10;21.15;;;18.20;99.90;;;;;;5007852;28;20049;-65
2021/06/23 03:32:35;;;;;;;22.20;19.75;;;18.20;99.90;;;;;;5009155;28;20060;-65
2021/06/23 03:35:04;;;;;;;23.70;17.23;;;18.20;99.90;;;;;;5008900;28;20170;-67
2021/06/23 03:37:31;;;;;;;18.85;15.52;;;18.20;99.90;;;;;;5011185;28;20156;-68
2021/06/23 03:40:04;;;;;;;23.10;19.23;;;18.20;99.90;;;;;;5024675;28;20049;-68
2021/06/23 03:42:33;;;;;;;28.58;21.40;;;18.20;99.90;;;;;;5012921;28;20073;-66
2021/06/23 03:45:00;;;;;;;20.13;16.58;;;18.20;99.90;;;;;;5025852;28;20137;-66
2021/06/23 03:47:27;;;;;;;23.27;20.75;;;18.20;99.90;;;;;;5011189;28;20139;-68
2021/06/23 03:49:54;;;;;;;22.10;18.02;;;18.20;99.90;;;;;;5024963;28;20046;-67
2021/06/23 03:52:21;;;;;;;24.88;17.40;;;18.20;99.90;;;;;;5007230;28;20073;-68
2021/06/23 03:54:49;;;;;;;22.63;18.33;;;18.20;99.90;;;;;;5010055;28;20049;-67
2021/06/23 03:57:16;;;;;;;29.33;19.40;;;18.20;99.90;;;;;;5025805;28;20077;-68
2021/06/23 03:59:44;;;;;;;31.73;18.70;;;18.20;99.90;;;;;;5012294;28;20053;-66
2021/06/23 04:02:11;;;;;;;21.55;16.48;;;18.20;99.90;;;;;;5008359;28;20136;-68
2021/06/23 04:04:38;;;;;;;25.30;16.55;;;18.20;99.90;;;;;;5012211;28;20065;-67
2021/06/23 04:07:10;;;;;;;16.70;14.07;;;18.20;99.90;;;;;;5011035;28;20746;-65
2021/06/23 04:09:37;;;;;;;16.90;15.07;;;18.20;99.90;;;;;;5010389;28;20138;-67
2021/06/23 04:12:11;;;;;;;17.30;13.95;;;18.10;99.90;;;;;;5007688;28;20073;-66
2021/06/23 04:14:45;;;;;;;15.73;14.18;;;18.10;99.90;;;;;;5010200;28;20049;-68
2021/06/23 04:17:12;;;;;;;19.13;15.02;;;18.10;99.90;;;;;;5010443;28;21393;-67
2021/06/23 04:19:39;;;;;;;18.70;16.63;;;18.00;99.90;;;;;;5012178;28;20521;-68
2021/06/23 04:22:10;;;;;;;17.23;15.40;;;18.00;99.90;;;;;;5008828;28;20482;-67
2021/06/23 04:24:37;;;;;;;21.05;16.63;;;18.00;99.90;;;;;;5010161;28;20132;-67
2021/06/23 04:27:08;;;;;;;25.63;17.63;;;18.00;99.90;;;;;;5024901;28;20053;-65
2021/06/23 04:29:38;;;;;;;20.35;15.50;;;17.90;99.90;;;;;;5025951;28;20359;-65
2021/06/23 04:32:06;;;;;;;19.20;16.02;;;17.90;99.90;;;;;;5007412;28;20061;-67
2021/06/23 04:34:37;;;;;;;18.17;15.27;;;17.90;99.90;;;;;;5010414;28;20128;-67
2021/06/23 04:37:18;;;;;;;21.30;16.05;;;17.90;99.90;;;;;;5009084;28;20381;-68
2021/06/23 04:39:50;;;;;;;24.05;18.35;;;18.00;99.90;;;;;;5008931;28;20414;-66
2021/06/23 04:42:17;;;;;;;17.52;15.30;;;17.90;99.90;;;;;;5024840;28;20586;-68
2021/06/23 04:44:47;;;;;;;24.20;16.50;;;18.00;99.90;;;;;;5010305;28;20060;-65
2021/06/23 04:47:16;;;;;;;21.02;16.35;;;18.00;99.90;;;;;;5010293;28;20373;-69
2021/06/23 04:49:43;;;;;;;22.60;16.95;;;18.00;99.90;;;;;;5008878;28;20630;-66
2021/06/23 04:52:16;;;;;;;22.30;15.20;;;18.00;99.90;;;;;;5006661;28;20075;-65
2021/06/23 04:54:44;;;;;;;18.02;14.75;;;18.10;99.90;;;;;;5008721;28;20530;-66
2021/06/23 04:57:11;;;;;;;15.77;13.82;;;18.10;99.90;;;;;;5004636;28;20168;-68
2021/06/23 04:59:38;;;;;;;17.52;13.27;;;18.20;99.90;;;;;;5003991;28;20060;-67
2021/06/23 05:02:05;;;;;;;15.32;12.15;;;18.20;99.90;;;;;;5005001;28;20408;-67
2021/06/23 05:04:34;;;;;;;15.98;13.05;;;18.20;99.90;;;;;;5006707;28;20128;-68
2021/06/23 05:07:03;;;;;;;16.00;14.38;;;18.20;99.90;;;;;;5004294;28;20045;-67
2021/06/23 05:09:30;;;;;;;16.40;14.43;;;18.10;99.90;;;;;;5007601;28;20140;-67
2021/06/23 05:11:57;;;;;;;13.90;12.40;;;18.10;99.90;;;;;;5005325;28;20136;-68
2021/06/23 05:14:24;;;;;;;15.60;12.73;;;18.10;99.90;;;;;;5002908;28;20069;-65
2021/06/23 05:16:51;;;;;;;16.23;12.65;;;18.10;99.90;;;;;;5011029;28;20049;-65
2021/06/23 05:19:19;;;;;;;14.45;13.15;;;18.10;99.90;;;;;;5009058;28;20053;-65
2021/06/23 05:21:46;;;;;;;21.92;14.35;;;18.10;99.90;;;;;;5007960;28;20103;-67
2021/06/23 05:24:13;;;;;;;30.42;16.98;;;18.10;99.90;;;;;;5009539;28;20107;-66
2021/06/23 05:26:40;;;;;;;22.08;13.40;;;18.10;99.90;;;;;;5010622;28;20111;-65
2021/06/23 05:29:07;;;;;;;15.93;12.38;;;18.20;99.90;;;;;;5009535;28;20353;-66
2021/06/23 05:31:34;;;;;;;17.95;12.55;;;18.10;99.90;;;;;;5010108;28;20240;-66
2021/06/23 05:34:02;;;;;;;15.52;12.07;;;18.20;99.90;;;;;;5006705;28;20045;-69
2021/06/23 05:36:29;;;;;;;15.18;13.25;;;18.20;99.90;;;;;;5008973;28;20049;-70
2021/06/23 05:38:56;;;;;;;17.23;13.10;;;18.40;99.90;;;;;;5002424;28;20037;-69
2021/06/23 05:41:23;;;;;;;18.85;13.30;;;18.60;99.90;;;;;;5009137;28;20573;-69
2021/06/23 05:43:50;;;;;;;15.95;12.98;;;18.70;99.90;;;;;;5005029;28;20053;-70
2021/06/23 05:46:17;;;;;;;28.95;13.75;;;19.00;99.90;;;;;;5008743;28;20111;-69
2021/06/23 05:48:44;;;;;;;21.90;12.90;;;19.10;99.90;;;;;;5008309;28;20056;-66
2021/06/23 05:51:11;;;;;;;23.35;12.40;;;19.30;99.90;;;;;;5008619;28;20056;-71
2021/06/23 05:53:38;;;;;;;14.00;11.88;;;19.40;99.90;;;;;;5009815;28;20534;-67
2021/06/23 05:56:05;;;;;;;19.70;13.13;;;19.50;99.90;;;;;;5008952;28;20049;-68
2021/06/23 05:58:32;;;;;;;15.35;11.98;;;19.30;99.90;;;;;;5009760;28;20487;-67
2021/06/23 06:01:01;;;;;;;20.45;14.10;;;19.40;99.90;;;;;;5010523;28;20080;-68
2021/06/23 06:03:28;;;;;;;19.17;12.80;;;19.50;99.90;;;;;;5009251;28;20491;-68
2021/06/23 06:05:56;;;;;;;14.00;12.48;;;19.30;99.90;;;;;;4286124;28;10001930;-68
2021/06/23 06:08:23;;;;;;;26.75;18.10;;;19.20;99.90;;;;;;1033551;28;10002693;-65
2021/06/23 06:10:50;;;;;;;17.52;12.10;;;19.10;99.90;;;;;;5008563;28;20401;-65
2021/06/23 06:13:17;;;;;;;19.27;14.25;;;19.00;99.90;;;;;;5008022;28;20727;-66
2021/06/23 06:15:44;;;;;;;22.25;12.85;;;19.00;99.90;;;;;;5009045;28;20563;-66
2021/06/23 06:18:11;;;;;;;14.30;12.02;;;19.00;99.90;;;;;;5007057;28;20054;-66
2021/06/23 06:20:38;;;;;;;19.30;13.18;;;19.00;99.90;;;;;;5007794;28;20057;-65
2021/06/23 06:23:05;;;;;;;12.75;11.43;;;19.20;99.90;;;;;;5008699;28;20820;-67
2021/06/23 06:25:32;;;;;;;14.90;11.95;;;19.20;99.90;;;;;;5004830;28;20398;-64
2021/06/23 06:28:00;;;;;;;21.67;11.45;;;19.40;99.90;;;;;;5004019;28;20049;-65
2021/06/23 06:30:27;;;;;;;13.30;11.70;;;19.30;99.90;;;;;;5004899;28;20741;-65
2021/06/23 06:32:55;;;;;;;16.95;11.85;;;19.30;99.90;;;;;;5005514;28;20155;-66
2021/06/23 06:35:22;;;;;;;30.45;15.60;;;19.20;99.90;;;;;;5004805;28;20147;-65
2021/06/23 06:37:49;;;;;;;15.20;11.60;;;19.20;99.90;;;;;;5018842;28;20119;-66
2021/06/23 06:40:16;;;;;;;16.33;14.52;;;19.10;99.90;;;;;;5005324;28;20206;-67
2021/06/23 06:42:43;;;;;;;15.02;11.95;;;19.20;99.90;;;;;;5007310;28;20119;-65
2021/06/23 06:45:11;;;;;;;16.35;11.07;;;19.30;99.90;;;;;;5006571;28;20081;-67
2021/06/23 06:47:37;;;;;;;18.50;13.80;;;19.30;99.90;;;;;;5005677;28;20053;-66
2021/06/23 06:50:05;;;;;;;21.20;12.40;;;19.10;99.90;;;;;;5006777;28;20131;-65
2021/06/23 06:52:32;;;;;;;13.20;11.82;;;19.20;99.90;;;;;;5005965;28;20061;-65
2021/06/23 06:54:59;;;;;;;16.70;12.55;;;19.30;99.90;;;;;;5006824;28;20049;-65
2021/06/23 06:57:26;;;;;;;16.17;12.73;;;19.40;99.90;;;;;;5007341;28;20332;-64
2021/06/23 06:59:53;;;;;;;15.27;12.27;;;19.50;99.90;;;;;;5007458;28;20140;-65
2021/06/23 07:02:20;;;;;;;13.95;12.43;;;19.50;99.90;;;;;;5010049;28;20123;-67
2021/06/23 07:04:47;;;;;;;16.10;12.48;;;19.50;99.90;;;;;;5012740;28;20050;-66
2021/06/23 07:07:14;;;;;;;14.27;12.13;;;19.60;99.90;;;;;;5010834;28;20160;-65
2021/06/23 07:09:41;;;;;;;12.93;10.88;;;19.60;99.90;;;;;;5013103;28;20419;-65
2021/06/23 07:12:09;;;;;;;15.10;11.52;;;19.70;99.90;;;;;;5009220;28;20049;-65
2021/06/23 07:14:36;;;;;;;12.35;11.13;;;19.80;99.90;;;;;;5012961;28;20151;-66
2021/06/23 07:17:03;;;;;;;13.95;12.10;;;19.80;99.90;;;;;;5011372;28;20091;-66
2021/06/23 07:19:30;;;;;;;16.00;11.52;;;19.90;99.90;;;;;;5011674;28;20084;-65
2021/06/23 07:21:57;;;;;;;14.73;10.93;;;20.00;99.90;;;;;;5006291;28;20081;-67
2021/06/23 07:24:23;;;;;;;20.30;14.70;;;20.20;99.90;;;;;;5010522;28;20079;-66
2021/06/23 07:26:57;;;;;;;15.15;11.75;;;20.10;99.90;;;;;;5008950;28;21758;-65
2021/06/23 07:29:26;;;;;;;17.15;13.82;;;20.00;99.90;;;;;;5009618;28;20042;-66
2021/06/23 07:31:58;;;;;;;15.82;10.70;;;20.10;99.90;;;;;;5006947;28;21104;-66
2021/06/23 07:37:07;;;;;;;20.60;12.13;;;20.10;99.90;;;;;;5004865;28;20046;-67
2021/06/23 07:39:36;;;;;;;10.65;9.52;;;20.10;99.90;;;;;;5009152;28;20049;-67
2021/06/23 07:42:05;;;;;;;17.67;10.73;;;20.20;99.90;;;;;;5003940;28;20187;-65
2021/06/23 07:44:40;;;;;;;12.23;10.15;;;20.50;99.90;;;;;;5007782;28;20137;-67
2021/06/23 07:47:19;;;;;;;11.98;10.73;;;20.40;99.90;;;;;;5006641;28;20055;-66
2021/06/23 07:49:47;;;;;;;16.60;10.95;;;20.10;99.90;;;;;;5005838;28;20041;-65
2021/06/23 07:52:23;;;;;;;11.82;10.35;;;19.80;99.90;;;;;;5006143;28;20049;-65
2021/06/23 07:54:59;;;;;;;17.50;12.40;;;19.60;99.90;;;;;;5006835;28;20173;-65
2021/06/23 08:10:52;;;;;;;10.25;8.93;;;19.80;99.90;;;;;;5008558;28;20140;-65
2021/06/23 08:13:19;;;;;;;12.32;9.73;;;19.90;99.90;;;;;;5010839;28;20053;-66
2021/06/23 08:15:48;;;;;;;12.13;9.43;;;20.00;99.90;;;;;;5006910;28;20135;-66
2021/06/23 08:18:16;;;;;;;11.23;9.95;;;20.20;99.90;;;;;;5009320;28;20126;-67
2021/06/23 08:20:43;;;;;;;10.02;9.02;;;20.20;99.90;;;;;;5009880;28;20240;-64
2021/06/23 08:23:10;;;;;;;14.60;10.13;;;20.30;99.90;;;;;;5008660;28;20529;-65
2021/06/23 08:25:37;;;;;;;9.10;8.20;;;20.30;99.90;;;;;;5009645;28;20634;-67
2021/06/23 08:28:05;;;;;;;10.95;9.18;;;20.40;99.90;;;;;;5008592;28;20167;-65
2021/06/23 08:30:32;;;;;;;12.40;8.50;;;20.30;99.90;;;;;;5023180;28;20460;-65
2021/06/23 08:33:01;;;;;;;9.35;8.38;;;20.20;99.90;;;;;;5010075;28;20100;-65
2021/06/23 08:35:28;;;;;;;13.15;7.65;;;20.30;99.90;;;;;;5009140;28;20045;-66
2021/06/23 08:37:56;;;;;;;13.40;7.82;;;20.40;99.90;;;;;;5006347;28;20141;-67
2021/06/23 08:40:23;;;;;;;8.43;7.57;;;20.40;99.90;;;;;;5008440;28;20315;-66
2021/06/23 08:42:51;;;;;;;7.75;6.93;;;20.40;99.90;;;;;;5008362;28;20103;-65
2021/06/23 08:45:18;;;;;;;8.43;7.32;;;20.50;99.90;;;;;;5008955;28;20057;-65
2021/06/23 08:47:47;;;;;;;10.30;7.55;;;20.40;99.90;;;;;;5008448;28;20041;-65
2021/06/23 08:50:21;;;;;;;7.95;7.28;;;20.40;99.90;;;;;;5005518;28;20056;-66
2021/06/23 08:52:48;;;;;;;11.60;7.15;;;20.30;99.90;;;;;;5007791;28;20484;-67
2021/06/23 08:55:20;;;;;;;14.48;8.00;;;20.20;99.90;;;;;;5007585;28;20053;-65
2021/06/23 08:57:51;;;;;;;9.63;8.70;;;20.10;99.90;;;;;;5006614;28;20115;-65
2021/06/23 09:00:22;;;;;;;11.27;8.43;;;20.00;99.90;;;;;;5008300;28;20127;-66
2021/06/23 09:02:49;;;;;;;14.02;9.18;;;19.70;99.90;;;;;;5007398;28;20118;-65
2021/06/23 09:05:17;;;;;;;19.20;9.10;;;19.60;99.90;;;;;;5006930;28;20057;-66
2021/06/23 09:07:47;;;;;;;12.15;10.07;;;19.60;99.90;;;;;;5006533;28;20184;-65
2021/06/23 09:10:24;;;;;;;12.82;9.48;;;19.60;99.90;;;;;;5006698;28;20065;-67
2021/06/23 09:13:10;;;;;;;12.98;9.40;;;19.60;99.90;;;;;;5007888;28;20197;-64
2021/06/23 09:15:59;;;;;;;12.57;9.18;;;19.80;99.90;;;;;;5009662;28;20075;-67
2021/06/23 09:18:27;;;;;;;11.60;8.40;;;19.80;99.90;;;;;;5008120;28;20515;-67
2021/06/23 09:21:02;;;;;;;10.45;9.20;;;19.90;99.90;;;;;;5009074;28;20046;-67
2021/06/23 09:23:42;;;;;;;11.90;7.75;;;20.00;99.90;;;;;;5007782;28;20118;-66
2021/06/23 09:26:19;;;;;;;11.32;8.50;;;20.20;99.90;;;;;;5007236;28;20515;-68
2021/06/23 09:29:16;;;;;;;11.55;7.97;;;20.40;99.90;;;;;;5007495;28;20148;-66
2021/06/23 09:31:53;;;;;;;11.40;9.32;;;20.40;99.90;;;;;;5009149;28;20042;-67
2021/06/23 09:34:22;;;;;;;8.32;7.53;;;20.30;99.90;;;;;;5005794;28;20049;-65
2021/06/23 09:36:49;;;;;;;10.05;9.00;;;20.50;99.90;;;;;;5008768;28;20167;-66
2021/06/23 09:39:21;;;;;;;8.98;8.00;;;20.50;99.90;;;;;;5007440;28;20140;-66
2021/06/23 09:41:49;;;;;;;8.50;7.80;;;20.60;99.90;;;;;;5006924;28;20060;-67
2021/06/23 09:44:16;;;;;;;7.90;7.10;;;20.80;99.90;;;;;;5006843;28;20132;-65
2021/06/23 09:46:46;;;;;;;8.35;6.40;;;20.80;99.90;;;;;;5007763;28;20146;-64
2021/06/23 09:49:22;;;;;;;7.65;6.97;;;20.80;99.90;;;;;;5008283;28;20616;-66
2021/06/23 09:52:09;;;;;;;7.82;6.90;;;20.70;99.90;;;;;;5005781;28;20053;-65
2021/06/23 09:54:53;;;;;;;9.20;8.20;;;20.80;99.90;;;;;;5008841;28;20076;-67
2021/06/23 09:57:25;;;;;;;7.93;7.13;;;20.70;99.90;;;;;;5004906;28;20045;-65
2021/06/23 10:00:03;;;;;;;8.38;7.57;;;20.60;99.90;;;;;;5007503;28;20783;-65
2021/06/23 10:02:32;;;;;;;8.57;7.88;;;20.60;99.90;;;;;;5006113;28;20114;-66
2021/06/23 10:05:02;;;;;;;9.77;8.88;;;20.60;99.90;;;;;;5008914;28;20054;-66
2021/06/23 10:07:49;;;;;;;7.95;7.35;;;20.60;99.90;;;;;;5005350;28;20136;-67
2021/06/23 10:10:18;;;;;;;9.25;8.40;;;20.70;99.90;;;;;;5005847;28;20073;-67
2021/06/23 10:12:50;;;;;;;8.15;7.35;;;20.70;99.90;;;;;;5004449;28;20750;-66
2021/06/23 10:15:18;;;;;;;9.40;8.52;;;20.80;99.90;;;;;;5008641;28;20049;-67
2021/06/23 10:17:45;;;;;;;8.75;6.50;;;20.90;99.90;;;;;;5005755;28;20088;-66
2021/06/23 10:20:14;;;;;;;7.90;7.07;;;20.90;99.90;;;;;;5007580;28;20046;-67
2021/06/23 10:22:43;;;;;;;10.70;7.78;;;20.90;99.90;;;;;;5006077;28;20124;-68
2021/06/23 10:25:15;;;;;;;10.98;8.65;;;21.10;99.90;;;;;;5007736;28;20073;-65
2021/06/23 10:27:45;;;;;;;8.68;7.80;;;21.10;99.90;;;;;;5007764;28;20330;-66
2021/06/23 10:30:14;;;;;;;8.02;7.22;;;20.80;99.90;;;;;;5007212;28;20134;-65
2021/06/23 10:32:42;;;;;;;12.50;8.07;;;20.80;99.90;;;;;;5006200;28;20045;-67
2021/06/23 10:35:11;;;;;;;7.65;6.68;;;20.90;99.90;;;;;;5009501;28;20065;-65
2021/06/23 10:37:44;;;;;;;7.22;6.53;;;21.00;99.90;;;;;;5010161;28;20076;-67
2021/06/23 10:40:13;;;;;;;8.10;7.30;;;21.20;99.90;;;;;;5011764;28;20436;-67
2021/06/23 10:42:40;;;;;;;8.98;8.18;;;21.10;99.90;;;;;;5009689;28;20377;-65
2021/06/23 10:45:08;;;;;;;7.57;6.95;;;21.00;99.90;;;;;;5012004;28;21783;-67
2021/06/23 10:47:47;;;;;;;8.52;7.72;;;20.90;99.90;;;;;;5009658;28;20049;-65
2021/06/23 10:50:17;;;;;;;8.07;7.35;;;20.50;99.90;;;;;;5010583;28;20195;-67
2021/06/23 10:52:46;;;;;;;11.38;10.23;;;20.40;99.90;;;;;;5010562;28;20049;-67
2021/06/23 10:55:22;;;;;;;12.57;7.50;;;20.60;99.90;;;;;;5011888;28;20943;-66
2021/06/23 10:57:57;;;;;;;8.82;7.93;;;20.50;99.90;;;;;;5007665;28;20052;-66
2021/06/23 11:00:27;;;;;;;8.30;7.50;;;20.80;99.90;;;;;;5009655;28;20080;-67
2021/06/23 11:03:03;;;;;;;7.60;6.90;;;21.00;99.90;;;;;;5007590;28;20061;-65
2021/06/23 11:05:46;;;;;;;8.77;7.15;;;20.80;99.90;;;;;;5009702;28;20180;-67
2021/06/23 11:08:29;;;;;;;8.25;7.43;;;20.60;99.90;;;;;;5009830;28;20813;-67
2021/06/23 11:11:02;;;;;;;9.43;7.38;;;20.60;99.90;;;;;;5012511;28;20057;-68
2021/06/23 11:13:32;;;;;;;12.43;6.65;;;20.80;99.90;;;;;;5010288;28;20153;-67
2021/06/23 11:15:59;;;;;;;8.43;6.80;;;21.00;99.90;;;;;;5010050;28;20057;-68
2021/06/23 11:18:35;;;;;;;11.63;6.80;;;20.90;99.90;;;;;;5011086;28;20082;-66
2021/06/23 11:21:13;;;;;;;8.20;7.40;;;20.80;99.90;;;;;;5010912;28;20045;-65
2021/06/23 11:23:50;;;;;;;10.10;7.28;;;20.70;99.90;;;;;;5011074;28;20492;-67
2021/06/23 11:26:22;;;;;;;7.88;7.22;;;20.80;99.90;;;;;;5010927;28;20118;-66
2021/06/23 11:28:57;;;;;;;6.93;6.32;;;20.80;99.90;;;;;;5011037;28;20049;-66
2021/06/23 11:31:49;;;;;;;7.45;6.88;;;20.80;99.90;;;;;;5012706;28;20057;-66
2021/06/23 11:34:35;;;;;;;8.63;7.72;;;20.50;99.90;;;;;;5008711;28;20134;-68
2021/06/23 11:37:04;;;;;;;8.57;7.88;;;20.40;99.90;;;;;;5010447;28;21621;-65
2021/06/23 11:39:31;;;;;;;8.82;7.97;;;20.10;99.90;;;;;;5010787;28;20061;-66
2021/06/23 11:41:58;;;;;;;7.35;6.45;;;20.20;99.90;;;;;;5009419;28;20126;-66
2021/06/23 11:44:24;;;;;;;9.30;8.48;;;20.40;99.90;;;;;;5011207;28;20132;-65
2021/06/23 11:47:01;;;;;;;9.75;8.85;;;20.50;99.90;;;;;;5010399;28;20049;-68
2021/06/23 11:49:32;;;;;;;8.32;7.53;;;20.50;99.90;;;;;;5010303;28;20052;-67
2021/06/23 11:52:00;;;;;;;8.70;7.82;;;20.90;99.90;;;;;;5009179;28;20497;-65
2021/06/23 11:54:27;;;;;;;9.65;8.65;;;21.00;99.90;;;;;;5010145;28;20045;-68
2021/06/23 11:56:54;;;;;;;7.95;7.35;;;20.80;99.90;;;;;;5011858;28;20077;-65
2021/06/23 11:59:21;;;;;;;8.10;7.43;;;20.70;99.90;;;;;;5009003;28;20078;-65
2021/06/23 12:01:48;;;;;;;7.68;7.03;;;20.60;99.90;;;;;;5010278;28;20218;-66
2021/06/23 12:04:15;;;;;;;8.90;7.05;;;20.50;99.90;;;;;;5010854;28;20073;-64
2021/06/23 12:06:43;;;;;;;8.45;7.78;;;20.40;99.90;;;;;;5010577;28;20126;-66
2021/06/23 12:09:10;;;;;;;8.30;7.57;;;20.60;99.90;;;;;;5009608;28;20111;-65
2021/06/23 12:11:36;;;;;;;7.68;6.97;;;21.10;99.90;;;;;;5017071;28;20140;-68
2021/06/23 12:14:03;;;;;;;9.13;7.43;;;21.30;99.90;;;;;;5006488;28;20052;-65
2021/06/23 12:16:31;;;;;;;9.20;8.23;;;21.50;99.90;;;;;;5008820;28;20073;-66
2021/06/23 12:18:58;;;;;;;7.15;6.43;;;21.40;99.90;;;;;;5009069;28;20049;-68
2021/06/23 12:21:25;;;;;;;8.27;6.78;;;21.20;99.90;;;;;;5009286;28;20046;-65
2021/06/23 12:23:51;;;;;;;9.93;9.02;;;20.90;99.90;;;;;;5007959;28;20053;-66
2021/06/23 12:26:22;;;;;;;10.02;8.93;;;20.50;99.90;;;;;;5009436;28;20527;-67
2021/06/23 12:28:50;;;;;;;8.32;7.55;;;20.40;99.90;;;;;;5009177;28;21052;-67
2021/06/23 12:31:17;;;;;;;9.60;8.90;;;20.30;99.90;;;;;;5009032;28;20136;-67
2021/06/23 12:33:44;;;;;;;10.63;8.55;;;20.30;99.90;;;;;;5006679;28;20049;-65
2021/06/23 12:36:13;;;;;;;9.55;8.65;;;20.30;99.90;;;;;;5008107;28;20099;-68
2021/06/23 12:38:40;;;;;;;8.07;7.38;;;20.10;99.90;;;;;;5007678;28;20327;-65
2021/06/23 12:41:07;;;;;;;11.90;10.50;;;19.80;99.90;;;;;;5010334;28;20072;-68
2021/06/23 12:43:34;;;;;;;8.70;7.90;;;19.70;99.90;;;;;;5009634;28;20073;-66
2021/06/23 12:46:01;;;;;;;9.13;8.38;;;19.60;99.90;;;;;;5006661;28;20057;-67
2021/06/23 12:48:28;;;;;;;9.13;8.30;;;19.60;99.90;;;;;;5008786;28;20076;-65
2021/06/23 12:50:55;;;;;;;8.07;7.32;;;19.60;99.90;;;;;;5008402;28;20131;-65
2021/06/23 12:53:22;;;;;;;7.85;6.93;;;19.60;99.90;;;;;;5008028;28;20048;-65
2021/06/23 12:55:50;;;;;;;14.40;8.73;;;19.70;99.90;;;;;;5006315;28;20130;-65
2021/06/23 12:58:16;;;;;;;8.57;7.65;;;19.50;99.90;;;;;;5008629;28;20081;-67
2021/06/23 13:00:44;;;;;;;10.60;8.05;;;19.60;99.90;;;;;;5008220;28;20558;-65
2021/06/23 13:03:11;;;;;;;9.50;8.43;;;19.40;99.90;;;;;;5007793;28;20064;-67
2021/06/23 13:05:38;;;;;;;8.73;7.90;;;19.50;99.90;;;;;;5008595;28;20107;-68